Time;durP1;ratioP1;P1;durP2;ratioP2;P2;SDS_P1;SDS_P2;PMS_P1;PMS_P2;Temp;Humidity;BMP_temperature;BMP_pressure;BME280_temperature;BME280_humidity;BME280_pressure;Samples;Min_cycle;Max_cycle;Signal;HPM_P1;HPM_P2
2021/12/30 00:00:21;;;;;;;39.47;20.23;;;;;;;11.35;59.48;100500.03;5805395;23;120299;-77
2021/12/30 00:02:48;;;;;;;39.17;20.48;;;;;;;11.49;59.68;100500.25;5967876;23;97180;-77
2021/12/30 00:05:26;;;;;;;41.63;20.25;;;;;;;11.46;59.51;100498.63;5974551;23;97781;-76
2021/12/30 00:07:57;;;;;;;44.67;20.63;;;;;;;11.37;59.65;100493.72;5974817;23;98737;-77
2021/12/30 00:10:23;;;;;;;44.20;22.05;;;;;;;11.26;59.83;100501.25;5973948;23;96644;-75
2021/12/30 00:12:51;;;;;;;39.70;20.20;;;;;;;11.36;60.22;100505.22;5972336;23;97207;-77
2021/12/30 00:15:49;;;;;;;38.55;19.30;;;;;;;11.45;59.66;100499.56;5981647;23;99986;-77
2021/12/30 00:27:50;;;;;;;36.47;19.80;;;;;;;11.41;60.04;100497.13;5832455;24;100120;-78
2021/12/30 00:30:55;;;;;;;;;;;;;;;;;;;;;
2021/12/30 00:33:32;;;;;;;35.03;18.67;;;;;;;11.43;59.61;100490.81;5991394;23;96511;-77
2021/12/30 00:43:01;;;;;;;28.92;17.17;;;;;;;11.38;60.38;100479.56;5850493;23;100600;-76
2021/12/30 00:45:29;;;;;;;30.75;17.88;;;;;;;11.51;60.01;100485.19;5898237;23;97105;-78
2021/12/30 00:51:19;;;;;;;29.63;17.02;;;;;;;11.47;60.30;100492.41;5887122;23;97035;-76
2021/12/30 00:53:48;;;;;;;26.80;15.80;;;;;;;11.53;59.45;100499.22;5943652;23;98734;-77
2021/12/30 00:56:32;;;;;;;26.30;16.77;;;;;;;11.45;60.02;100507.50;5973929;23;97208;-77
2021/12/30 00:59:01;;;;;;;30.77;16.80;;;;;;;11.51;60.13;100501.94;5975064;23;96806;-77
2021/12/30 01:01:39;;;;;;;;;;;;;;;;;;;;;
2021/12/30 01:04:10;;;;;;;27.92;16.67;;;;;;;11.53;60.05;100502.75;5974159;23;125750;-77
2021/12/30 01:10:20;;;;;;;27.70;16.58;;;;;;;11.53;59.16;100501.88;5877583;23;97152;-77
2021/12/30 01:38:58;;;;;;;22.63;14.85;;;;;;;11.41;59.96;100505.06;5739930;23;100101;-78
2021/12/30 02:10:44;;;;;;;;;;;;;;;;;;;;;
2021/12/30 02:32:37;;;;;;;;;;;;;;;;;;;;;
2021/12/30 03:41:13;;;;;;;20.35;13.18;;;;;;;12.20;60.63;100558.03;6007380;23;97075;-75
2021/12/30 03:43:40;;;;;;;19.45;12.85;;;;;;;12.11;61.28;100553.16;6002830;23;101593;-76
2021/12/30 03:46:08;;;;;;;18.30;12.63;;;;;;;12.26;61.08;100543.66;6004559;23;99036;-76
2021/12/30 03:48:40;;;;;;;19.45;12.07;;;;;;;12.25;60.38;100544.59;6005147;23;97088;-75
2021/12/30 03:51:10;;;;;;;18.40;11.57;;;;;;;12.13;60.99;100563.69;6004664;23;97113;-76
2021/12/30 03:53:39;;;;;;;17.52;11.38;;;;;;;12.29;61.09;100575.28;6005088;23;99787;-76
2021/12/30 03:56:07;;;;;;;17.58;11.18;;;;;;;12.34;61.35;100579.44;6006400;23;98982;-77
2021/12/30 03:58:35;;;;;;;16.50;10.50;;;;;;;12.44;60.39;100571.09;6005077;23;96669;-75
2021/12/30 04:01:02;;;;;;;14.10;9.45;;;;;;;12.08;61.35;100573.63;6005833;23;97608;-76
2021/12/30 04:03:32;;;;;;;15.18;10.00;;;;;;;12.19;61.64;100581.94;6006799;23;99132;-76
2021/12/30 04:05:58;;;;;;;14.38;9.43;;;;;;;12.03;62.56;100600.28;6002608;23;100518;-76
2021/12/30 04:08:25;;;;;;;14.38;10.18;;;;;;;12.21;62.55;100610.06;6005765;23;97171;-76
2021/12/30 04:10:52;;;;;;;14.85;8.98;;;;;;;12.20;61.84;100604.88;6004087;23;97441;-76
2021/12/30 04:13:19;;;;;;;16.55;10.15;;;;;;;12.28;63.01;100622.13;6003369;23;99438;-76
2021/12/30 04:15:47;;;;;;;20.73;10.27;;;;;;;12.31;62.72;100632.59;6004340;23;99318;-75
2021/12/30 04:18:13;;;;;;;17.63;10.07;;;;;;;12.33;62.93;100641.34;6003590;23;96578;-75
2021/12/30 04:20:40;;;;;;;19.00;10.57;;;;;;;12.17;63.52;100653.53;6005936;23;97099;-75
2021/12/30 04:23:07;;;;;;;22.25;10.85;;;;;;;12.15;64.10;100660.66;6004635;23;99403;-75
2021/12/30 04:25:34;;;;;;;21.60;12.45;;;;;;;12.16;64.42;100654.44;6003667;23;98876;-75
2021/12/30 04:28:01;;;;;;;25.13;11.85;;;;;;;11.87;65.40;100654.84;6004326;23;97045;-75
2021/12/30 04:30:27;;;;;;;30.50;12.57;;;;;;;11.74;65.40;100658.94;6005373;23;96999;-76
2021/12/30 04:32:55;;;;;;;25.85;13.93;;;;;;;11.84;66.25;100662.91;6003688;23;99210;-75
2021/12/30 04:35:22;;;;;;;29.23;13.57;;;;;;;11.96;65.96;100659.75;6008428;23;99278;-76
2021/12/30 04:37:48;;;;;;;31.85;14.48;;;;;;;11.85;66.41;100662.00;6007417;23;96817;-76
2021/12/30 04:40:15;;;;;;;30.80;14.57;;;;;;;12.01;66.73;100660.44;6004251;23;97326;-76
2021/12/30 04:42:42;;;;;;;33.85;15.18;;;;;;;11.92;66.07;100666.97;6005156;23;99074;-75
2021/12/30 04:45:10;;;;;;;37.47;16.02;;;;;;;11.80;66.80;100675.44;6009791;23;102083;-76
2021/12/30 04:47:38;;;;;;;31.92;14.35;;;;;;;12.14;65.85;100674.00;6004877;23;97172;-76
2021/12/30 04:50:08;;;;;;;35.92;16.05;;;;;;;12.48;64.72;100681.31;6005279;23;97300;-76
2021/12/30 04:52:34;;;;;;;36.88;16.52;;;;;;;12.43;64.71;100685.97;6006353;23;98808;-75
2021/12/30 04:55:00;;;;;;;37.55;16.48;;;;;;;12.44;64.86;100670.00;6005633;23;98966;-76
2021/12/30 04:57:27;;;;;;;39.83;17.20;;;;;;;12.44;64.66;100674.44;6006396;23;96706;-76
2021/12/30 04:59:53;;;;;;;42.30;17.67;;;;;;;12.36;64.95;100680.06;6004987;23;97119;-76
2021/12/30 05:02:20;;;;;;;42.03;17.95;;;;;;;12.21;66.46;100686.03;6006920;23;99078;-76
2021/12/30 05:04:46;;;;;;;41.95;19.08;;;;;;;12.03;66.57;100692.97;6008876;23;97830;-76
2021/12/30 05:07:14;;;;;;;48.63;18.23;;;;;;;12.29;65.64;100684.78;6012335;23;96662;-75
2021/12/30 05:09:40;;;;;;;40.22;18.55;;;;;;;12.26;65.49;100671.69;6006555;23;97630;-76
2021/12/30 05:12:08;;;;;;;47.13;18.80;;;;;;;12.42;65.14;100676.28;6005265;23;99046;-76
2021/12/30 05:14:34;;;;;;;45.00;19.73;;;;;;;12.11;65.75;100679.41;6007339;23;97874;-76
2021/12/30 05:17:03;;;;;;;39.55;17.90;;;;;;;12.33;66.54;100672.28;6006294;23;96584;-75
2021/12/30 05:19:30;;;;;;;43.72;19.63;;;;;;;12.50;64.97;100685.63;6005674;23;96980;-75
2021/12/30 05:21:57;;;;;;;50.38;20.48;;;;;;;12.28;66.23;100696.31;6004696;23;96955;-76
2021/12/30 05:24:25;;;;;;;41.97;19.50;;;;;;;12.38;65.88;100689.69;6005701;23;97019;-76
2021/12/30 05:26:51;;;;;;;46.20;19.83;;;;;;;12.47;66.00;100690.22;6006696;23;97038;-76
2021/12/30 05:29:18;;;;;;;45.10;19.30;;;;;;;12.44;65.48;100693.00;6005425;23;96792;-76
2021/12/30 05:31:44;;;;;;;47.42;19.60;;;;;;;12.78;64.64;100688.78;6008318;23;98217;-77
2021/12/30 05:34:11;;;;;;;45.15;18.10;;;;;;;12.78;63.72;100698.53;6014802;23;100233;-77
2021/12/30 05:36:37;;;;;;;44.92;20.33;;;;;;;12.85;64.54;100699.97;6027746;23;97173;-75
2021/12/30 05:39:04;;;;;;;50.75;19.65;;;;;;;12.72;64.52;100699.66;6028464;23;95934;-76
2021/12/30 05:41:32;;;;;;;47.58;18.85;;;;;;;12.31;66.08;100711.22;6028476;23;98176;-76
2021/12/30 05:43:59;;;;;;;46.55;20.05;;;;;;;12.55;65.51;100717.22;6029767;23;100964;-76
2021/12/30 05:46:27;;;;;;;47.17;19.25;;;;;;;12.75;64.95;100722.50;6027682;23;96574;-76
2021/12/30 05:48:54;;;;;;;48.33;19.75;;;;;;;12.69;65.46;100733.38;6029208;23;96493;-77
2021/12/30 05:51:20;;;;;;;50.33;19.95;;;;;;;12.82;64.21;100731.91;6016236;23;96536;-76
2021/12/30 05:53:47;;;;;;;45.80;19.02;;;;;;;12.89;63.43;100736.00;6026962;23;99206;-76
2021/12/30 05:56:13;;;;;;;44.17;19.92;;;;;;;12.86;64.35;100728.22;6027931;23;95826;-75
2021/12/30 05:58:41;;;;;;;47.63;20.25;;;;;;;13.03;64.12;100720.34;6019934;23;96604;-76
2021/12/30 06:01:07;;;;;;;48.92;19.23;;;;;;;13.16;63.27;100734.78;6008292;23;99083;-75
2021/12/30 06:03:34;;;;;;;41.92;19.63;;;;;;;13.16;63.46;100733.94;6008624;23;99082;-75
2021/12/30 06:06:00;;;;;;;43.33;18.50;;;;;;;13.25;63.30;100733.50;6009781;23;97132;-76
2021/12/30 06:08:27;;;;;;;60.95;19.52;;;;;;;13.09;63.75;100735.09;6008582;23;96816;-77
2021/12/30 06:10:53;;;;;;;42.47;19.50;;;;;;;13.30;62.97;100747.41;6003821;23;97606;-76
2021/12/30 06:13:20;;;;;;;47.28;18.98;;;;;;;13.31;62.97;100732.38;6006516;23;98902;-76
2021/12/30 06:15:48;;;;;;;47.75;18.75;;;;;;;13.51;62.49;100730.50;6004786;23;96668;-76
2021/12/30 06:18:15;;;;;;;41.15;17.42;;;;;;;13.37;62.83;100734.72;6006783;23;97506;-77
2021/12/30 06:20:41;;;;;;;37.75;16.88;;;;;;;13.48;62.59;100746.56;6005957;23;99601;-76
2021/12/30 06:23:08;;;;;;;42.03;19.13;;;;;;;13.44;62.30;100750.28;6008217;23;99454;-76
2021/12/30 06:25:34;;;;;;;45.85;18.00;;;;;;;13.13;63.91;100753.50;6005996;23;96708;-75
2021/12/30 06:28:01;;;;;;;45.42;19.42;;;;;;;13.25;63.31;100748.56;6010720;23;96857;-76
2021/12/30 06:30:27;;;;;;;42.58;17.30;;;;;;;13.01;64.40;100750.50;6012054;23;98916;-75
2021/12/30 06:32:55;;;;;;;38.25;17.63;;;;;;;13.12;63.10;100759.75;6009395;23;99362;-76
2021/12/30 06:35:22;;;;;;;36.55;16.20;;;;;;;13.27;63.09;100754.66;6024636;23;96580;-75
2021/12/30 06:37:49;;;;;;;49.88;17.33;;;;;;;13.34;62.47;100749.00;6023624;23;96537;-77
2021/12/30 06:40:16;;;;;;;39.90;17.17;;;;;;;13.39;62.32;100757.59;6021954;23;98329;-77
2021/12/30 06:42:43;;;;;;;34.92;16.92;;;;;;;13.41;61.88;100754.88;6018605;23;99060;-75
2021/12/30 06:45:11;;;;;;;42.90;16.17;;;;;;;13.33;61.97;100757.88;6018931;23;96511;-76
2021/12/30 06:47:37;;;;;;;44.75;17.25;;;;;;;13.28;62.24;100767.00;6013784;23;96765;-76
2021/12/30 06:50:08;;;;;;;37.75;17.17;;;;;;;12.95;63.28;100770.22;6004837;23;97279;-75
2021/12/30 06:52:34;;;;;;;41.60;16.63;;;;;;;13.11;62.89;100783.66;6007957;23;98986;-77
2021/12/30 06:55:01;;;;;;;44.78;17.23;;;;;;;13.25;62.08;100783.94;6009213;23;97255;-75
2021/12/30 06:57:28;;;;;;;35.70;16.40;;;;;;;13.21;62.46;100790.28;6007649;23;96817;-76
2021/12/30 06:59:54;;;;;;;49.75;17.50;;;;;;;13.16;62.73;100789.66;6007858;23;99186;-76
2021/12/30 07:02:21;;;;;;;39.95;16.48;;;;;;;12.73;63.18;100796.81;6007865;23;99272;-75
2021/12/30 07:04:48;;;;;;;42.50;17.42;;;;;;;12.82;63.98;100792.91;6004214;23;97134;-77
2021/12/30 07:07:16;;;;;;;41.50;16.92;;;;;;;12.88;63.94;100797.94;6005720;23;96859;-76
2021/12/30 07:09:43;;;;;;;37.35;15.55;;;;;;;12.86;63.68;100805.13;6007176;23;98754;-76
2021/12/30 07:12:09;;;;;;;46.00;16.02;;;;;;;12.85;63.79;100802.53;6004522;23;97698;-76
2021/12/30 07:14:36;;;;;;;41.05;16.85;;;;;;;13.09;63.11;100802.28;6004013;23;96668;-75
2021/12/30 07:17:02;;;;;;;42.45;16.20;;;;;;;12.99;63.51;100811.59;6005357;23;96783;-77
2021/12/30 07:19:29;;;;;;;36.40;16.55;;;;;;;12.97;63.56;100828.50;6003904;23;98918;-76
2021/12/30 07:21:55;;;;;;;42.25;16.58;;;;;;;12.90;64.26;100827.91;6005750;23;99088;-76
2021/12/30 07:24:23;;;;;;;42.60;16.40;;;;;;;12.80;64.01;100837.19;6006045;23;96629;-75
2021/12/30 07:26:50;;;;;;;36.80;15.55;;;;;;;12.77;64.40;100834.69;6007103;23;97348;-76
2021/12/30 07:29:16;;;;;;;37.13;15.00;;;;;;;12.97;64.01;100829.38;6004568;23;99686;-76
2021/12/30 07:31:43;;;;;;;37.85;15.68;;;;;;;12.91;63.32;100824.34;6005437;23;99261;-75
2021/12/30 07:34:11;;;;;;;48.97;16.92;;;;;;;13.11;63.67;100839.38;6010049;23;96573;-76
2021/12/30 07:36:37;;;;;;;44.70;15.95;;;;;;;13.33;63.14;100844.59;6007328;23;96622;-76
2021/12/30 07:39:04;;;;;;;42.45;16.23;;;;;;;13.26;63.12;100835.22;6007823;23;99358;-76
2021/12/30 07:41:32;;;;;;;45.63;15.88;;;;;;;13.29;63.14;100829.75;6003758;23;99354;-76
2021/12/30 07:43:58;;;;;;;39.85;14.75;;;;;;;13.33;62.63;100841.94;6003519;23;97110;-76
2021/12/30 07:46:25;;;;;;;40.45;14.63;;;;;;;13.37;62.48;100844.41;6004581;23;96771;-77
2021/12/30 07:48:51;;;;;;;42.05;14.73;;;;;;;13.47;62.47;100845.69;6004051;23;101426;-75
2021/12/30 07:51:18;;;;;;;42.58;16.35;;;;;;;13.38;62.03;100838.16;6001219;23;98433;-76
2021/12/30 07:53:44;;;;;;;33.30;15.00;;;;;;;13.46;62.01;100833.34;6003131;23;97068;-76
2021/12/30 07:56:10;;;;;;;35.50;14.02;;;;;;;13.62;61.60;100838.81;6003177;23;96860;-75
2021/12/30 07:58:38;;;;;;;47.33;15.43;;;;;;;13.46;61.91;100841.31;6002435;23;98946;-75
2021/12/30 08:01:05;;;;;;;46.22;15.50;;;;;;;13.68;61.42;100843.84;6000420;23;99286;-75
2021/12/30 08:03:31;;;;;;;39.40;14.32;;;;;;;13.50;61.51;100837.59;6002520;23;96619;-76
2021/12/30 08:05:58;;;;;;;35.05;13.88;;;;;;;13.73;61.65;100839.19;6000639;23;96997;-75
2021/12/30 08:08:24;;;;;;;40.10;14.98;;;;;;;13.53;61.85;100834.78;6002816;23;98956;-75
2021/12/30 08:10:51;;;;;;;43.38;15.32;;;;;;;13.53;61.56;100842.75;6004209;23;99013;-75
2021/12/30 08:13:18;;;;;;;36.70;14.32;;;;;;;13.74;61.81;100830.28;6003115;23;97195;-76
2021/12/30 08:15:46;;;;;;;39.95;13.32;;;;;;;13.84;61.16;100836.03;6002472;23;96769;-76
2021/12/30 08:18:13;;;;;;;43.35;14.93;;;;;;;13.94;61.22;100830.19;6002184;23;99312;-76
2021/12/30 08:20:39;;;;;;;41.03;14.00;;;;;;;13.81;61.44;100834.38;6000282;23;98944;-76
2021/12/30 08:23:06;;;;;;;50.92;14.52;;;;;;;14.04;61.06;100821.78;6004700;23;97036;-76
2021/12/30 08:25:32;;;;;;;37.40;13.45;;;;;;;14.15;60.65;100811.50;6002731;23;96794;-76
2021/12/30 08:27:59;;;;;;;43.40;13.95;;;;;;;14.09;60.23;100820.63;6002108;23;99448;-77
2021/12/30 08:30:25;;;;;;;32.22;13.00;;;;;;;14.01;61.12;100830.75;6002634;23;99575;-76
2021/12/30 08:32:53;;;;;;;46.58;14.90;;;;;;;14.17;60.83;100836.22;6002837;23;96593;-75
2021/12/30 08:35:21;;;;;;;42.13;13.15;;;;;;;14.23;60.68;100836.78;6003853;23;96673;-75
2021/12/30 08:37:49;;;;;;;32.30;12.88;;;;;;;14.30;60.72;100847.97;6001913;23;99424;-75
2021/12/30 08:40:17;;;;;;;47.60;13.23;;;;;;;14.22;60.32;100850.13;6000536;23;98111;-75
2021/12/30 08:42:45;;;;;;;36.72;12.60;;;;;;;14.29;60.33;100855.06;6003383;23;97356;-76
2021/12/30 08:45:11;;;;;;;34.35;13.50;;;;;;;14.13;60.97;100850.56;6003164;23;96799;-74
2021/12/30 08:47:38;;;;;;;31.45;12.05;;;;;;;14.26;60.66;100849.03;6004270;23;98903;-75
2021/12/30 08:50:10;;;;;;;39.05;13.15;;;;;;;14.39;60.47;100842.19;6003490;23;98914;-75
2021/12/30 08:52:37;;;;;;;34.60;13.35;;;;;;;14.25;60.45;100842.84;6003833;23;97042;-76
2021/12/30 08:55:05;;;;;;;32.42;12.18;;;;;;;14.28;60.55;100848.03;6004899;23;96969;-76
2021/12/30 08:57:31;;;;;;;33.38;13.15;;;;;;;14.23;60.63;100847.41;6003608;23;99147;-75
2021/12/30 08:59:58;;;;;;;36.63;13.45;;;;;;;14.30;60.99;100842.66;6003904;23;99405;-74
2021/12/30 09:02:25;;;;;;;33.30;12.98;;;;;;;14.29;60.33;100855.06;5999741;23;97372;-75
2021/12/30 09:04:51;;;;;;;38.65;12.52;;;;;;;14.50;60.49;100866.47;6003550;23;96815;-75
2021/12/30 09:07:19;;;;;;;32.80;12.38;;;;;;;14.39;60.45;100858.16;6002754;23;98972;-76
2021/12/30 09:09:46;;;;;;;40.63;12.65;;;;;;;14.26;60.66;100870.28;6001228;23;98730;-75
2021/12/30 09:12:13;;;;;;;38.38;13.95;;;;;;;14.27;61.25;100882.66;6003859;23;97022;-75
2021/12/30 09:14:39;;;;;;;38.78;12.30;;;;;;;14.28;60.95;100879.06;6005185;23;97357;-75
2021/12/30 09:17:07;;;;;;;36.20;12.05;;;;;;;14.44;61.05;100874.72;6001230;23;97978;-76
2021/12/30 09:19:34;;;;;;;38.92;13.15;;;;;;;14.42;60.63;100860.69;6002227;23;97730;-75
2021/12/30 09:22:00;;;;;;;34.10;13.00;;;;;;;14.49;60.09;100870.06;6003163;23;97132;-75
2021/12/30 09:24:29;;;;;;;38.38;12.68;;;;;;;14.64;60.21;100884.38;6005092;23;96938;-76
2021/12/30 09:26:55;;;;;;;35.55;12.68;;;;;;;14.67;60.05;100877.13;6003670;23;99236;-77
2021/12/30 09:29:22;;;;;;;30.70;12.55;;;;;;;14.68;59.74;100889.50;6005284;23;98444;-76
2021/12/30 09:31:51;;;;;;;37.30;12.68;;;;;;;14.64;60.30;100881.72;6005971;23;96749;-75
2021/12/30 09:34:18;;;;;;;39.58;12.63;;;;;;;14.65;59.80;100876.34;6004321;23;96909;-75
2021/12/30 09:36:45;;;;;;;37.42;13.18;;;;;;;14.64;60.13;100873.75;6001943;23;98931;-76
2021/12/30 09:39:13;;;;;;;41.25;13.25;;;;;;;14.69;59.88;100882.38;6003629;23;99022;-75
2021/12/30 09:42:21;;;;;;;;;;;;;;;;;;;;;
2021/12/30 09:45:34;;;;;;;;;;;;;;;;;;;;;
2021/12/30 11:03:42;;;;;;;;;;;;;;;;;;;;;
2021/12/30 11:31:51;;;;;;;28.03;10.73;;;;;;;14.73;59.56;100836.06;5816136;23;104630;-77
2021/12/30 11:34:19;;;;;;;27.00;10.40;;;;;;;14.67;59.15;100837.22;6002405;23;99378;-77
2021/12/30 11:36:45;;;;;;;25.20;10.65;;;;;;;14.73;59.53;100834.25;6003170;23;99409;-76
2021/12/30 11:39:14;;;;;;;24.52;9.70;;;;;;;14.63;59.77;100832.16;6003780;23;97200;-77
2021/12/30 11:41:43;;;;;;;23.30;10.02;;;;;;;14.75;58.62;100824.41;6002984;23;97561;-76
2021/12/30 11:44:09;;;;;;;26.58;10.00;;;;;;;14.90;58.96;100825.38;6003014;23;99357;-76
2021/12/30 11:46:51;;;;;;;;;;;;;;;;;;;;;
2021/12/30 11:50:16;;;;;;;;;;;;;;;;;;;;;
2021/12/30 11:53:01;;;;;;;26.95;9.38;;;;;;;14.54;60.02;100812.19;5995927;23;119664;-77
2021/12/30 11:55:54;;;;;;;26.80;10.10;;;;;;;14.73;59.77;100820.09;6003978;23;97853;-77
2021/12/30 12:08:48;;;;;;;32.65;10.85;;;;;;;14.54;60.96;100809.53;5833158;23;97253;-77
2021/12/30 12:11:28;;;;;;;;;;;;;;;;;;;;;
2021/12/30 12:14:44;;;;;;;;;;;;;;;;;;;;;
2021/12/30 12:17:53;;;;;;;;;;;;;;;;;;;;;
2021/12/30 12:20:34;;;;;;;25.13;9.80;;;;;;;14.88;60.08;100789.19;6002250;23;128630;-76
2021/12/30 12:23:30;;;;;;;27.50;11.65;;;;;;;14.84;60.43;100798.25;5983573;23;99062;-76
2021/12/30 12:26:46;;;;;;;;;;;;;;;;;;;;;
2021/12/30 12:29:55;;;;;;;;;;;;;;;;;;;;;
2021/12/30 12:59:38;;;;;;;;;;;;;;;;;;;;;
2021/12/30 13:02:30;;;;;;;32.58;12.25;;;;;;;14.66;62.33;100765.50;5885944;23;127819;-77
2021/12/30 13:15:19;;;;;;;22.13;8.90;;;;;;;14.58;63.75;100752.59;5812794;24;102834;-76
2021/12/30 13:17:59;;;;;;;22.10;9.60;;;;;;;14.78;63.27;100756.88;5966326;23;96722;-78
2021/12/30 13:20:52;;;;;;;21.80;8.93;;;;;;;14.88;62.96;100770.56;6000764;23;97424;-77
2021/12/30 13:23:35;;;;;;;18.25;8.88;;;;;;;14.97;62.71;100765.59;5858452;24;97802;-77
2021/12/30 13:26:27;;;;;;;;;;;;;;;;;;;;;
2021/12/30 13:41:56;;;;;;;14.43;6.88;;;;;;;14.89;64.17;100775.81;5993562;23;98981;-77
2021/12/30 13:44:23;;;;;;;17.48;7.35;;;;;;;14.88;64.45;100775.88;6002470;23;97380;-76
2021/12/30 13:47:14;;;;;;;13.93;6.53;;;;;;;14.83;64.31;100777.94;6011994;23;99247;-77
2021/12/30 13:49:42;;;;;;;12.05;6.95;;;;;;;14.96;64.50;100784.31;6027321;23;97752;-76
2021/12/30 13:52:11;;;;;;;14.05;7.22;;;;;;;14.89;64.71;100777.59;6029241;23;96161;-75
2021/12/30 13:54:39;;;;;;;15.10;5.40;;;;;;;15.06;64.33;100790.88;6015270;23;96532;-76
2021/12/30 13:57:19;;;;;;;;;;;;;;;;;;;;;
2021/12/30 13:59:48;;;;;;;18.40;6.95;;;;;;;15.18;63.65;100782.22;6003560;23;128943;-76
2021/12/30 14:02:14;;;;;;;11.20;6.25;;;;;;;15.07;64.05;100787.25;6003650;23;96636;-75
2021/12/30 14:04:43;;;;;;;9.20;5.65;;;;;;;15.09;64.40;100783.59;6005235;23;96768;-77
2021/12/30 14:07:11;;;;;;;11.80;5.50;;;;;;;15.21;63.63;100778.53;6004632;23;99295;-76
2021/12/30 14:09:38;;;;;;;8.82;5.78;;;;;;;15.23;63.52;100790.81;6008097;23;101486;-76
2021/12/30 14:12:13;;;;;;;10.82;5.85;;;;;;;15.10;64.39;100785.28;6004224;23;96581;-76
2021/12/30 14:14:41;;;;;;;13.68;5.78;;;;;;;15.25;64.08;100783.59;6004742;23;96803;-77
2021/12/30 14:17:11;;;;;;;11.40;6.35;;;;;;;15.32;63.75;100785.00;6007265;23;98173;-77
2021/12/30 14:19:41;;;;;;;8.85;6.00;;;;;;;15.26;64.43;100787.13;6006118;23;99088;-77
2021/12/30 14:22:11;;;;;;;11.45;5.35;;;;;;;15.21;64.48;100790.06;6004178;23;97291;-77
2021/12/30 14:25:15;;;;;;;;;;;;;;;;;;;;;
2021/12/30 14:42:33;;;;;;;7.47;4.57;;;;;;;15.07;66.09;100796.13;5912144;23;103120;-77
2021/12/30 14:45:14;;;;;;;7.70;4.70;;;;;;;15.22;66.23;100791.78;5993117;23;96748;-74
2021/12/30 14:47:45;;;;;;;7.43;3.80;;;;;;;15.35;65.69;100790.16;6004717;23;96629;-76
2021/12/30 14:50:15;;;;;;;9.38;4.75;;;;;;;15.32;65.78;100779.69;6003351;23;98891;-75
2021/12/30 14:52:43;;;;;;;7.63;4.05;;;;;;;15.37;65.89;100790.06;6001201;23;97492;-76
2021/12/30 14:55:16;;;;;;;5.90;4.10;;;;;;;15.26;65.74;100792.47;6002453;23;96748;-76
2021/12/30 14:57:55;;;;;;;7.22;3.83;;;;;;;15.31;65.52;100796.59;6004214;23;97150;-76
2021/12/30 15:39:57;;;;;;;3.92;2.95;;;;;;;15.64;69.39;100817.03;6020146;23;96713;-76
2021/12/30 15:42:25;;;;;;;5.25;3.08;;;;;;;15.72;68.67;100818.31;6004541;23;97004;-76
2021/12/30 15:44:51;;;;;;;5.03;3.33;;;;;;;15.68;68.85;100818.59;6001467;23;98928;-75
2021/12/30 15:47:18;;;;;;;5.35;3.10;;;;;;;15.83;68.21;100813.25;6004070;23;97938;-76
2021/12/30 15:49:45;;;;;;;3.13;2.90;;;;;;;15.73;69.07;100817.38;6000139;23;96792;-76
2021/12/30 15:52:13;;;;;;;4.85;2.40;;;;;;;15.72;69.15;100817.47;6003969;23;96603;-75
2021/12/30 15:54:40;;;;;;;5.32;3.20;;;;;;;15.88;68.82;100813.00;6003015;23;99148;-76
2021/12/30 15:57:08;;;;;;;7.13;3.38;;;;;;;15.93;68.67;100811.81;6001741;23;98989;-75
2021/12/30 15:59:35;;;;;;;4.40;3.25;;;;;;;15.98;68.35;100808.88;6001097;23;97273;-75
2021/12/30 16:02:03;;;;;;;3.45;2.63;;;;;;;16.16;68.14;100813.13;6002800;23;97125;-75
2021/12/30 16:04:29;;;;;;;3.63;3.03;;;;;;;15.51;69.39;100807.00;6000694;23;97828;-75
2021/12/30 16:07:00;;;;;;;4.10;3.20;;;;;;;15.81;69.75;100811.63;6004465;23;99108;-76
2021/12/30 16:09:26;;;;;;;4.60;3.05;;;;;;;15.93;69.24;100824.25;6004440;23;96765;-75
2021/12/30 16:11:53;;;;;;;3.15;2.85;;;;;;;15.84;68.81;100816.78;6004209;23;96819;-77
2021/12/30 16:14:20;;;;;;;3.53;3.22;;;;;;;15.43;70.15;100824.34;6003685;23;99447;-75
2021/12/30 16:16:47;;;;;;;4.22;3.25;;;;;;;15.53;71.11;100831.81;6006863;23;98104;-76
2021/12/30 16:19:13;;;;;;;4.03;3.35;;;;;;;15.70;70.63;100830.84;6018844;23;96595;-75
2021/12/30 16:21:42;;;;;;;4.20;3.80;;;;;;;15.75;70.32;100838.63;6020721;23;97167;-76
2021/12/30 16:24:09;;;;;;;6.47;3.50;;;;;;;15.73;70.69;100840.50;6020211;23;99326;-75
2021/12/30 16:26:36;;;;;;;4.50;3.83;;;;;;;15.79;70.43;100846.34;6021582;23;98801;-74
2021/12/30 16:29:03;;;;;;;6.80;4.75;;;;;;;15.66;70.39;100860.44;6019780;23;96590;-75
2021/12/30 16:31:31;;;;;;;7.13;4.47;;;;;;;16.07;69.98;100860.81;6015758;23;96584;-74
2021/12/30 16:34:00;;;;;;;5.20;4.45;;;;;;;15.61;70.97;100859.81;6004783;23;100406;-75
2021/12/30 16:36:27;;;;;;;7.20;5.85;;;;;;;15.88;70.32;100866.31;6003469;23;99067;-74
2021/12/30 16:38:54;;;;;;;6.32;5.20;;;;;;;15.72;70.98;100876.94;6002643;23;97078;-74
2021/12/30 16:41:20;;;;;;;6.55;4.95;;;;;;;16.04;70.58;100871.63;6004507;23;96819;-76
2021/12/30 16:43:47;;;;;;;5.22;4.72;;;;;;;15.72;70.02;100874.28;6001983;23;99140;-75
2021/12/30 16:46:13;;;;;;;6.82;5.07;;;;;;;15.37;71.91;100869.94;6002961;23;97849;-75
2021/12/30 16:48:41;;;;;;;7.00;6.00;;;;;;;15.74;71.62;100876.84;6002672;23;96787;-75
2021/12/30 16:51:07;;;;;;;8.30;5.75;;;;;;;16.04;70.65;100872.47;6003416;23;97216;-76
2021/12/30 16:53:34;;;;;;;8.63;6.22;;;;;;;16.07;69.75;100884.78;6002885;23;99079;-76
2021/12/30 16:56:00;;;;;;;7.80;6.47;;;;;;;16.10;70.14;100885.47;6002709;23;99052;-75
2021/12/30 16:58:27;;;;;;;7.82;6.28;;;;;;;16.17;69.46;100886.84;6000803;23;97117;-75
2021/12/30 17:00:55;;;;;;;9.43;7.45;;;;;;;16.07;70.32;100884.78;6002862;23;96809;-75
2021/12/30 17:03:23;;;;;;;8.90;7.70;;;;;;;16.05;70.08;100895.53;6001330;23;98681;-75
2021/12/30 17:05:51;;;;;;;12.57;8.45;;;;;;;15.94;71.34;100897.94;6000134;23;98055;-75
2021/12/30 17:08:19;;;;;;;11.07;8.70;;;;;;;16.25;70.24;100892.59;5999597;23;96953;-75
2021/12/30 17:10:46;;;;;;;10.70;8.65;;;;;;;16.31;69.22;100894.06;5998370;23;96906;-74
2021/12/30 17:13:13;;;;;;;10.00;8.70;;;;;;;16.00;71.09;100888.75;6000521;23;98191;-76
2021/12/30 17:15:39;;;;;;;12.80;9.43;;;;;;;15.98;71.62;100893.28;5998821;23;98941;-76
2021/12/30 17:18:06;;;;;;;12.63;9.98;;;;;;;15.81;71.62;100905.75;6001608;23;97495;-76
2021/12/30 17:20:33;;;;;;;12.20;9.68;;;;;;;16.11;71.68;100899.66;6001902;23;97173;-75
2021/12/30 17:23:01;;;;;;;12.20;9.68;;;;;;;16.00;70.90;100908.25;6002833;23;99095;-75
2021/12/30 17:25:27;;;;;;;12.00;9.63;;;;;;;16.16;70.59;100908.25;6002875;23;98184;-76
2021/12/30 17:27:58;;;;;;;11.55;10.35;;;;;;;16.09;70.51;100901.53;6004075;23;96661;-76
2021/12/30 17:30:26;;;;;;;15.13;11.10;;;;;;;16.09;70.83;100907.72;6003429;23;96776;-77
2021/12/30 17:32:53;;;;;;;12.38;10.52;;;;;;;16.04;71.28;100914.28;6002273;23;98910;-77
2021/12/30 17:35:19;;;;;;;14.85;10.77;;;;;;;15.70;71.31;100909.91;6003134;23;98985;-77
2021/12/30 17:37:46;;;;;;;14.57;10.68;;;;;;;15.79;72.17;100912.09;6004686;23;96605;-76
2021/12/30 17:40:15;;;;;;;14.07;11.27;;;;;;;15.90;71.78;100907.03;6006475;23;96856;-75
2021/12/30 17:42:47;;;;;;;13.85;10.68;;;;;;;16.24;71.51;100914.88;6006388;23;100954;-76
2021/12/30 17:45:16;;;;;;;15.00;11.85;;;;;;;16.25;70.75;100919.28;6002506;23;97582;-75
2021/12/30 17:47:46;;;;;;;14.95;11.98;;;;;;;16.24;70.26;100927.34;6002525;23;97517;-75
2021/12/30 17:50:14;;;;;;;16.55;11.07;;;;;;;15.95;71.88;100924.47;6000743;23;97474;-76
2021/12/30 17:52:40;;;;;;;17.10;11.60;;;;;;;16.15;72.11;100925.19;6002250;23;99101;-75
2021/12/30 17:55:07;;;;;;;17.48;12.35;;;;;;;16.18;71.15;100925.88;6001647;23;99908;-75
2021/12/30 17:57:35;;;;;;;16.45;12.68;;;;;;;16.06;72.40;100931.03;6002888;23;96714;-75
2021/12/30 18:00:03;;;;;;;20.88;13.65;;;;;;;16.03;71.61;100916.06;6000468;23;97817;-74
2021/12/30 18:02:30;;;;;;;17.00;12.88;;;;;;;16.10;70.86;100921.91;6001370;23;98203;-74
2021/12/30 18:04:56;;;;;;;20.27;14.20;;;;;;;16.45;70.52;100925.28;6002877;23;99003;-74
2021/12/30 18:07:23;;;;;;;18.90;13.23;;;;;;;16.49;70.05;100924.16;6004172;23;96730;-74
2021/12/30 18:09:49;;;;;;;17.20;12.95;;;;;;;16.36;70.36;100921.31;6004688;23;96602;-74